Terminal Aerodrome Forecast
Issued by NWS

Home | Current Version | Previous Version | Text Only | Print | Product List | Glossary On
Versions: 1 2 3 4 5 6 7 8 9 10 11 12 13 14 15 16 17 18 19 20 21 22 23 24 25 26 27 28 29 30 31 32 33 34 35 36 37 38 39 40 41 42 43 44 45 46 47 48
000
FTUS46 KOTX 232255 AAF
TAFCOE
TAF AMD
KCOE 232255Z 2323/2418 25005KT P6SM SCT001 BKN022
     FM240300 35004KT 1SM BR BKN001
     FM240800 34003KT 1/4SM FZFG OVC001=

USA.gov is the U.S. government's official web portal to all federal, state and local government web resources and services.